Time;durP1;ratioP1;P1;durP2;ratioP2;P2;SDS_P1;SDS_P2;PMS_P1;PMS_P2;Temp;Humidity;BMP_temperature;BMP_pressure;BME280_temperature;BME280_humidity;BME280_pressure;Samples;Min_cycle;Max_cycle;Signal;HPM_P1;HPM_P2
2022/04/25 14:54:30;;;;;;;;;0.00;0.00;24.10;34.30;;;;;;5741142;24;11701;-63
2022/04/25 14:56:56;;;;;;;;;1.00;1.00;24.30;33.40;;;;;;4664597;30;11745;-63
2022/04/25 14:59:22;;;;;;;;;0.75;0.75;24.40;35.20;;;;;;4663775;30;11749;-64
2022/04/25 15:01:51;;;;;;;;;1.00;1.00;24.20;35.10;;;;;;4666455;30;11693;-63
2022/04/25 15:04:19;;;;;;;;;1.00;1.00;24.00;34.10;;;;;;4666924;30;8808;-61
2022/04/25 15:06:46;;;;;;;;;0.00;0.00;23.90;34.40;;;;;;4666237;30;11704;-63
2022/04/25 15:09:12;;;;;;;;;0.00;0.00;24.40;34.20;;;;;;4666458;30;11693;-64
2022/04/25 15:11:39;;;;;;;;;1.00;1.00;24.50;34.50;;;;;;4666418;30;11826;-64
2022/04/25 15:14:05;;;;;;;;;1.00;1.00;24.40;34.80;;;;;;4666538;30;11698;-62
2022/04/25 15:16:31;;;;;;;;;0.75;0.75;23.90;34.60;;;;;;4666394;30;11720;-63
2022/04/25 15:18:57;;;;;;;;;1.00;1.00;23.90;35.90;;;;;;4666159;30;8922;-65
2022/04/25 15:21:23;;;;;;;;;0.00;0.00;23.80;35.50;;;;;;4666286;30;11682;-65
2022/04/25 15:23:48;;;;;;;;;0.00;0.00;24.00;35.70;;;;;;4666481;30;8820;-63
2022/04/25 15:26:14;;;;;;;;;0.00;0.00;24.10;35.20;;;;;;4666830;30;8887;-65
2022/04/25 15:28:41;;;;;;;;;0.00;0.00;24.10;34.80;;;;;;4666460;30;8866;-63
2022/04/25 15:31:07;;;;;;;;;0.25;0.25;24.30;35.00;;;;;;4665602;30;8899;-59
2022/04/25 15:33:33;;;;;;;;;0.00;0.00;24.60;34.40;;;;;;4665631;30;11703;-61
2022/04/25 15:35:59;;;;;;;;;0.00;0.00;24.80;34.00;;;;;;4666757;30;8939;-63
2022/04/25 15:38:26;;;;;;;;;0.00;0.00;24.00;35.00;;;;;;4666230;30;8840;-62
2022/04/25 15:40:52;;;;;;;;;2.00;2.00;24.30;34.60;;;;;;4666089;30;11784;-59
2022/04/25 15:43:18;;;;;;;;;0.50;0.50;23.80;34.70;;;;;;4666089;30;11705;-64
2022/04/25 15:45:44;;;;;;;;;0.75;0.75;24.00;35.50;;;;;;4666329;30;8840;-61
2022/04/25 15:48:09;;;;;;;;;1.00;1.00;23.70;35.00;;;;;;4666172;30;8844;-64
2022/04/25 15:50:35;;;;;;;;;1.00;1.00;23.90;36.40;;;;;;4666081;30;8933;-63
2022/04/25 15:53:01;;;;;;;;;1.00;1.00;24.40;34.80;;;;;;4665791;30;8829;-64
2022/04/25 15:58:11;;;;;;;;;0.00;0.00;23.90;34.90;;;;;;4701440;30;8833;-65
2022/04/25 16:00:36;;;;;;;;;1.25;1.25;23.90;35.90;;;;;;4702544;30;11674;-63
2022/04/25 16:03:04;;;;;;;;;1.00;1.00;23.70;36.20;;;;;;4702657;30;8818;-62
2022/04/25 16:05:29;;;;;;;;;0.25;0.25;23.10;36.40;;;;;;4701753;30;8907;-62
2022/04/25 16:07:55;;;;;;;;;0.00;0.00;23.60;35.60;;;;;;4701152;30;11666;-64
2022/04/25 16:10:21;;;;;;;;;1.00;1.00;23.50;35.40;;;;;;4702677;30;8845;-63
2022/04/25 16:12:47;;;;;;;;;1.00;1.00;23.10;37.00;;;;;;4702512;30;8826;-65
2022/04/25 16:15:14;;;;;;;;;1.00;1.00;23.60;36.30;;;;;;4701592;30;11755;-66
2022/04/25 16:17:40;;;;;;;;;1.50;1.50;23.30;35.10;;;;;;4701612;30;8829;-64
2022/04/25 16:20:06;;;;;;;;;2.00;2.00;23.00;36.10;;;;;;4701687;30;11701;-61
2022/04/25 16:22:32;;;;;;;;;2.75;2.75;23.10;36.10;;;;;;4701655;30;8828;-61
2022/04/25 16:25:00;;;;;;;;;2.00;2.00;23.30;36.10;;;;;;4701614;30;11707;-63
2022/04/25 16:27:26;;;;;;;;;1.75;1.75;23.00;35.90;;;;;;4702600;30;8818;-62
2022/04/25 16:29:52;;;;;;;;;2.00;2.00;22.90;36.90;;;;;;4701748;30;12311;-62
2022/04/25 16:32:18;;;;;;;;;2.50;1.00;22.90;36.60;;;;;;4702133;30;8972;-62
2022/04/25 16:34:45;;;;;;;;;1.00;1.00;22.60;37.20;;;;;;4702233;30;8833;-62
2022/04/25 16:37:12;;;;;;;;;3.25;2.00;22.50;37.80;;;;;;4702062;30;11730;-61
2022/04/25 16:39:38;;;;;;;;;3.00;2.25;22.70;37.70;;;;;;4701801;30;11710;-61
2022/04/25 16:42:06;;;;;;;;;6.00;3.25;22.50;37.90;;;;;;4701510;30;11693;-60
2022/04/25 16:44:32;;;;;;;;;4.67;4.67;22.90;37.50;;;;;;4702070;30;8856;-62
2022/04/25 16:46:58;;;;;;;;;5.33;5.33;23.00;37.00;;;;;;4702393;30;11715;-61
2022/04/25 16:49:24;;;;;;;;;4.00;4.00;23.20;36.80;;;;;;4703085;30;8826;-62
2022/04/25 16:51:54;;;;;;;;;6.67;6.00;23.50;36.10;;;;;;4702733;30;8865;-61
2022/04/25 16:54:21;;;;;;;;;5.00;5.00;23.00;36.80;;;;;;4702686;30;8845;-61
2022/04/25 16:56:47;;;;;;;;;4.33;4.33;22.60;37.50;;;;;;4701072;30;12514;-61
2022/04/25 16:59:13;;;;;;;;;5.00;4.33;22.60;38.30;;;;;;4702687;30;11749;-61
2022/04/25 17:01:39;;;;;;;;;3.00;3.00;23.10;37.70;;;;;;4702745;30;11716;-62
2022/04/25 17:04:05;;;;;;;;;4.67;4.67;23.30;37.30;;;;;;4701488;30;8965;-63
2022/04/25 17:06:31;;;;;;;;;5.00;5.00;23.70;36.50;;;;;;4698974;30;8826;-63
2022/04/25 17:08:59;;;;;;;;;7.67;6.00;23.20;37.10;;;;;;4701117;30;8840;-61
2022/04/25 17:11:25;;;;;;;;;7.00;6.00;22.90;37.60;;;;;;4701556;30;11702;-62
2022/04/25 17:13:51;;;;;;;;;5.67;5.67;23.20;37.00;;;;;;4701278;30;11689;-60
2022/04/25 17:16:17;;;;;;;;;4.67;4.00;22.90;37.60;;;;;;4701243;30;11676;-61
2022/04/25 17:18:43;;;;;;;;;5.33;5.33;23.10;37.10;;;;;;4700269;30;11699;-61
2022/04/25 17:21:08;;;;;;;;;3.00;3.00;22.90;37.80;;;;;;4701482;30;11795;-63
2022/04/25 17:23:34;;;;;;;;;5.00;5.00;23.50;36.50;;;;;;4702758;30;8805;-63
2022/04/25 17:26:00;;;;;;;;;5.33;5.33;24.00;35.90;;;;;;4702152;30;9477;-62
2022/04/25 17:28:26;;;;;;;;;5.00;4.00;24.00;35.70;;;;;;4702650;30;8822;-62
2022/04/25 17:30:52;;;;;;;;;3.00;3.00;24.20;35.10;;;;;;4702507;30;11737;-61
2022/04/25 17:36:05;;;;;;;;;6.33;4.67;24.00;35.00;;;;;;4702401;30;8810;-61
